createdAt,value
2022-10-04T00:00:47.524Z,9.40
2022-10-04T00:03:22.663Z,9.40
2022-10-04T00:05:52.416Z,9.40
2022-10-04T00:08:28.241Z,9.30
2022-10-04T00:11:07.609Z,9.30
2022-10-04T00:13:38.096Z,9.30
2022-10-04T00:16:07.460Z,9.30
2022-10-04T00:18:39.903Z,9.30
2022-10-04T00:21:08.711Z,9.30
2022-10-04T00:23:46.857Z,9.30
2022-10-04T00:26:53.721Z,9.20
2022-10-04T00:29:35.210Z,9.20
2022-10-04T00:32:29.806Z,9.20
2022-10-04T00:34:59.598Z,9.20
2022-10-04T00:37:32.558Z,9.20
2022-10-04T00:40:10.806Z,9.20
2022-10-04T00:42:50.450Z,9.10
2022-10-04T00:45:28.205Z,9.10
2022-10-04T00:48:21.222Z,9.10
2022-10-04T00:50:53.948Z,9.10
2022-10-04T00:53:40.957Z,9.10
2022-10-04T00:56:12.120Z,9.20
2022-10-04T00:59:03.434Z,9.20
2022-10-04T01:01:35.052Z,9.20
2022-10-04T01:04:12.123Z,9.20
2022-10-04T01:06:40.393Z,9.20
2022-10-04T01:09:10.335Z,9.20
2022-10-04T01:11:42.275Z,9.20
2022-10-04T01:14:14.665Z,9.20
2022-10-04T01:16:41.955Z,9.20
2022-10-04T01:19:30.136Z,9.20
2022-10-04T01:22:02.941Z,9.20
2022-10-04T01:24:35.598Z,9.20
2022-10-04T01:27:02.841Z,9.20
2022-10-04T01:29:31.466Z,9.20
2022-10-04T01:32:00.513Z,9.20
2022-10-04T01:34:29.758Z,9.20
2022-10-04T01:36:59.984Z,9.20
2022-10-04T01:39:28.445Z,9.20
2022-10-04T01:42:03.707Z,9.20
2022-10-04T01:44:36.226Z,9.20
2022-10-04T01:47:08.287Z,9.10
2022-10-04T01:49:38.916Z,9.10
2022-10-04T01:52:10.531Z,9.00
2022-10-04T01:54:42.958Z,8.90
2022-10-04T01:57:16.646Z,8.90
2022-10-04T01:59:49.674Z,8.90
2022-10-04T02:02:25.459Z,8.90
2022-10-04T02:04:55.728Z,8.80
2022-10-04T02:07:24.288Z,8.80
2022-10-04T02:09:56.386Z,8.70
2022-10-04T02:12:27.091Z,8.70
2022-10-04T02:14:56.051Z,8.70
2022-10-04T02:17:26.679Z,8.70
2022-10-04T02:19:53.946Z,8.60
2022-10-04T02:22:24.475Z,8.60
2022-10-04T02:24:54.785Z,8.50
2022-10-04T02:27:28.215Z,8.50
2022-10-04T02:30:00.814Z,8.30
2022-10-04T02:32:30.516Z,8.40
2022-10-04T02:34:58.343Z,8.30
2022-10-04T02:37:27.731Z,8.30
2022-10-04T02:39:59.543Z,8.20
2022-10-04T02:42:38.140Z,8.20
2022-10-04T02:45:12.243Z,8.10
2022-10-04T02:47:45.303Z,8.10
2022-10-04T02:50:23.702Z,8.00
2022-10-04T02:52:53.501Z,8.00
2022-10-04T02:55:24.083Z,7.90
2022-10-04T02:57:53.562Z,7.90
2022-10-04T03:00:23.550Z,7.90
2022-10-04T03:03:23.006Z,7.80
2022-10-04T03:05:58.888Z,7.80
2022-10-04T03:08:27.165Z,7.70
2022-10-04T03:10:55.147Z,7.70
2022-10-04T03:13:23.334Z,7.70
2022-10-04T03:15:50.479Z,7.60
2022-10-04T03:18:19.230Z,7.70
2022-10-04T03:20:46.710Z,7.60
2022-10-04T03:23:15.599Z,7.50
2022-10-04T03:25:49.256Z,7.50
2022-10-04T03:28:16.882Z,7.50
2022-10-04T03:30:46.833Z,7.50
2022-10-04T03:33:19.255Z,7.50
2022-10-04T03:35:49.785Z,7.50
2022-10-04T03:38:17.503Z,7.50
2022-10-04T03:40:51.319Z,7.60
2022-10-04T03:43:20.109Z,7.60
2022-10-04T03:45:49.037Z,7.50
2022-10-04T03:48:25.434Z,7.60
2022-10-04T03:50:54.031Z,7.50
2022-10-04T03:53:29.384Z,7.50
2022-10-04T03:56:02.101Z,7.60
2022-10-04T03:58:31.814Z,7.60
2022-10-04T04:01:11.957Z,7.60
2022-10-04T04:03:52.116Z,7.50
2022-10-04T04:06:20.682Z,7.40
2022-10-04T04:08:52.041Z,7.30
2022-10-04T04:11:24.494Z,7.20
2022-10-04T04:13:57.959Z,7.20
2022-10-04T04:16:27.871Z,7.30
2022-10-04T04:18:58.990Z,7.20
2022-10-04T04:21:27.770Z,7.20
2022-10-04T04:23:57.738Z,7.20
2022-10-04T04:26:32.205Z,7.10
2022-10-04T04:29:06.433Z,7.20
2022-10-04T04:31:40.883Z,7.10
2022-10-04T04:34:18.693Z,7.00
2022-10-04T04:36:45.772Z,7.00
2022-10-04T04:39:16.756Z,6.90
2022-10-04T04:41:48.130Z,6.90
2022-10-04T04:44:18.790Z,6.80
2022-10-04T04:46:47.575Z,6.90
2022-10-04T04:49:17.799Z,6.80
2022-10-04T04:51:49.822Z,6.70
2022-10-04T04:54:18.299Z,6.80
2022-10-04T04:56:47.549Z,6.80
2022-10-04T04:59:15.249Z,6.80
2022-10-04T05:01:44.438Z,6.80
2022-10-04T05:04:20.493Z,6.70
2022-10-04T05:06:49.070Z,6.70
2022-10-04T05:09:28.320Z,6.70
2022-10-04T05:12:02.283Z,6.70
2022-10-04T05:14:29.975Z,6.70
2022-10-04T05:16:57.941Z,6.60
2022-10-04T05:19:29.003Z,6.50
2022-10-04T05:21:59.447Z,6.50
2022-10-04T05:24:28.782Z,6.40
2022-10-04T05:26:59.499Z,6.40
2022-10-04T05:29:29.058Z,6.40
2022-10-04T05:32:04.983Z,6.40
2022-10-04T05:34:39.563Z,6.40
2022-10-04T05:37:22.037Z,6.40
2022-10-04T05:40:00.749Z,6.40
2022-10-04T05:42:37.494Z,6.40
2022-10-04T05:45:14.543Z,6.40
2022-10-04T05:47:43.749Z,6.40
2022-10-04T05:50:18.226Z,6.30
2022-10-04T05:52:48.750Z,6.40
2022-10-04T05:55:25.441Z,6.40
2022-10-04T05:58:15.216Z,6.40
2022-10-04T06:00:52.849Z,6.50
2022-10-04T06:03:34.922Z,6.50
2022-10-04T06:06:13.367Z,6.50
2022-10-04T06:08:51.330Z,6.50
2022-10-04T06:11:36.872Z,6.50
2022-10-04T06:14:26.121Z,6.60
2022-10-04T06:17:08.651Z,6.60
2022-10-04T06:20:05.684Z,6.70
2022-10-04T06:22:33.846Z,6.70
2022-10-04T06:25:05.959Z,6.70
2022-10-04T06:27:38.075Z,6.80
2022-10-04T06:30:12.196Z,6.80
2022-10-04T06:33:09.316Z,6.80
2022-10-04T06:36:09.573Z,6.90
2022-10-04T06:39:07.388Z,6.90
2022-10-04T06:41:47.055Z,7.00
2022-10-04T06:44:29.020Z,7.10
2022-10-04T06:47:05.748Z,7.20
2022-10-04T06:49:38.934Z,7.20
2022-10-04T06:52:39.144Z,7.30
2022-10-04T06:55:30.819Z,7.40
2022-10-04T06:58:20.053Z,7.40
2022-10-04T07:00:54.309Z,7.40
2022-10-04T07:03:26.151Z,7.50
2022-10-04T07:05:57.249Z,7.50
2022-10-04T07:08:31.327Z,7.50
2022-10-04T07:11:06.504Z,7.50
2022-10-04T07:13:46.566Z,7.60
2022-10-04T07:16:27.617Z,7.70
2022-10-04T07:19:05.603Z,7.80
2022-10-04T07:21:39.741Z,8.10
2022-10-04T07:24:12.199Z,8.20
2022-10-04T07:26:46.249Z,8.50
2022-10-04T07:29:18.800Z,8.60
2022-10-04T07:31:47.653Z,8.90
2022-10-04T07:34:18.166Z,9.20
2022-10-04T07:36:48.602Z,9.30
2022-10-04T07:39:19.442Z,9.30
2022-10-04T07:41:51.761Z,9.00
2022-10-04T07:44:29.255Z,8.90
2022-10-04T07:47:00.102Z,8.90
2022-10-04T07:49:27.816Z,9.30
2022-10-04T07:52:13.047Z,9.10
2022-10-04T07:54:47.159Z,9.20
2022-10-04T07:57:22.434Z,9.60
2022-10-04T08:00:00.211Z,9.90
2022-10-04T08:02:37.657Z,10.00
2022-10-04T08:05:19.743Z,10.10
2022-10-04T08:08:04.626Z,10.30
2022-10-04T08:10:36.605Z,10.60
2022-10-04T08:13:16.305Z,10.70
2022-10-04T08:15:44.793Z,10.80
2022-10-04T08:18:25.323Z,11.00
2022-10-04T08:20:58.370Z,11.30
2022-10-04T08:23:49.434Z,11.60
2022-10-04T08:26:49.034Z,11.60
2022-10-04T08:29:44.281Z,11.90
2022-10-04T08:32:31.649Z,11.80
2022-10-04T08:35:22.820Z,12.20
2022-10-04T08:38:11.641Z,12.20
2022-10-04T08:41:02.605Z,12.40
2022-10-04T08:44:06.827Z,12.50
2022-10-04T08:47:04.307Z,12.60
2022-10-04T08:50:02.812Z,12.50
2022-10-04T08:52:45.514Z,12.30
2022-10-04T08:55:42.819Z,12.90
2022-10-04T08:58:32.933Z,13.00
2022-10-04T09:01:17.577Z,12.90
2022-10-04T09:04:37.502Z,13.20
2022-10-04T09:07:27.902Z,13.30
2022-10-04T09:10:24.227Z,12.60
2022-10-04T09:13:02.074Z,13.00
2022-10-04T09:15:51.427Z,13.00
2022-10-04T09:18:37.966Z,13.60
2022-10-04T09:21:10.735Z,13.70
2022-10-04T09:24:32.548Z,13.70
2022-10-04T09:27:13.400Z,13.60
2022-10-04T09:29:59.862Z,13.80
2022-10-04T09:33:04.569Z,13.90
2022-10-04T09:36:01.930Z,13.90
2022-10-04T09:39:29.046Z,14.00
2022-10-04T09:42:11.419Z,13.90
2022-10-04T09:45:12.779Z,14.10
2022-10-04T09:47:45.118Z,13.40
2022-10-04T09:50:52.326Z,13.80
2022-10-04T09:53:46.597Z,13.80
2022-10-04T09:56:34.766Z,13.50
2022-10-04T09:59:44.853Z,13.70
2022-10-04T10:02:43.044Z,13.70
2022-10-04T10:05:29.814Z,14.20
2022-10-04T10:08:08.389Z,14.10
2022-10-04T10:10:45.229Z,14.20
2022-10-04T10:13:30.035Z,14.90
2022-10-04T10:16:06.516Z,15.20
2022-10-04T10:18:45.983Z,14.00
2022-10-04T10:21:29.056Z,14.40
2022-10-04T10:24:20.462Z,14.60
2022-10-04T10:27:02.492Z,15.30
2022-10-04T10:30:03.147Z,14.10
2022-10-04T10:32:47.362Z,14.30
2022-10-04T10:35:25.609Z,14.20
2022-10-04T10:38:15.487Z,14.70
2022-10-04T10:41:03.923Z,15.40
2022-10-04T10:43:59.865Z,15.00
2022-10-04T10:46:46.084Z,15.40
2022-10-04T10:49:25.969Z,15.50
2022-10-04T10:52:35.564Z,15.30
2022-10-04T10:55:30.638Z,16.00
2022-10-04T10:58:21.007Z,15.10
2022-10-04T11:00:58.154Z,15.30
2022-10-04T11:03:57.639Z,15.20
2022-10-04T11:07:10.365Z,16.00
2022-10-04T11:10:03.194Z,15.70
2022-10-04T11:12:57.106Z,15.60
2022-10-04T11:15:47.784Z,15.80
2022-10-04T11:18:44.510Z,15.70
2022-10-04T11:21:58.391Z,15.80
2022-10-04T11:24:46.765Z,15.50
2022-10-04T11:27:20.290Z,15.70
2022-10-04T11:30:08.049Z,15.80
2022-10-04T11:33:11.383Z,15.90
2022-10-04T11:36:00.619Z,16.10
2022-10-04T11:38:34.943Z,16.10
2022-10-04T11:41:14.739Z,16.00
2022-10-04T11:44:17.011Z,16.60
2022-10-04T11:46:52.879Z,16.60
2022-10-04T11:49:38.304Z,17.00
2022-10-04T11:52:25.603Z,16.50
2022-10-04T11:55:32.374Z,16.70
2022-10-04T11:58:11.908Z,16.50
2022-10-04T12:00:59.841Z,17.00
2022-10-04T12:03:50.944Z,17.10
2022-10-04T12:06:32.264Z,17.20
2022-10-04T12:09:11.422Z,17.40
2022-10-04T12:12:07.338Z,17.10
2022-10-04T12:14:50.839Z,16.40
2022-10-04T12:17:45.906Z,16.20
2022-10-04T12:20:34.954Z,16.20
2022-10-04T12:23:34.276Z,16.60
2022-10-04T12:26:28.579Z,17.60
2022-10-04T12:29:25.358Z,17.40
2022-10-04T12:31:57.645Z,16.70
2022-10-04T12:34:32.060Z,16.70
2022-10-04T12:37:19.561Z,16.80
2022-10-04T12:40:13.008Z,16.50
2022-10-04T12:42:47.612Z,16.80
2022-10-04T12:45:28.142Z,16.30
2022-10-04T12:48:09.098Z,16.20
2022-10-04T12:50:49.238Z,17.00
2022-10-04T12:53:28.503Z,17.60
2022-10-04T12:56:04.442Z,17.70
2022-10-04T12:59:01.273Z,17.60
2022-10-04T13:01:37.345Z,17.20
2022-10-04T13:04:19.042Z,17.00
2022-10-04T13:06:59.734Z,17.40
2022-10-04T13:09:38.672Z,17.30
2022-10-04T13:12:23.559Z,17.10
2022-10-04T13:15:07.947Z,17.00
2022-10-04T13:17:44.693Z,16.80
2022-10-04T13:20:34.379Z,16.80
2022-10-04T13:23:07.371Z,16.70
2022-10-04T13:26:03.519Z,17.30
2022-10-04T13:28:37.038Z,17.10
2022-10-04T13:31:10.080Z,16.70
2022-10-04T13:33:43.348Z,16.60
2022-10-04T13:36:17.290Z,17.10
2022-10-04T13:39:12.807Z,17.10
2022-10-04T13:42:03.714Z,17.30
2022-10-04T13:44:58.225Z,16.70
2022-10-04T13:47:52.884Z,17.40
2022-10-04T13:50:52.492Z,16.90
2022-10-04T13:53:34.552Z,16.80
2022-10-04T13:56:06.533Z,17.20
2022-10-04T13:58:46.555Z,17.10
2022-10-04T14:01:52.089Z,16.70
2022-10-04T14:04:59.383Z,16.40
2022-10-04T14:07:52.316Z,16.90
2022-10-04T14:10:36.892Z,17.00
2022-10-04T14:13:26.172Z,17.00
2022-10-04T14:16:22.130Z,16.90
2022-10-04T14:19:32.270Z,16.90
2022-10-04T14:22:34.682Z,16.60
2022-10-04T14:25:41.323Z,16.70
2022-10-04T14:28:40.086Z,16.90
2022-10-04T14:31:30.259Z,16.70
2022-10-04T14:34:43.331Z,16.80
2022-10-04T14:37:46.743Z,16.60
2022-10-04T14:40:27.833Z,16.80
2022-10-04T14:43:32.489Z,16.90
2022-10-04T14:46:13.867Z,17.00
2022-10-04T14:48:53.483Z,16.60
2022-10-04T14:51:49.436Z,17.10
2022-10-04T14:54:32.597Z,17.30
2022-10-04T14:57:04.130Z,17.40
2022-10-04T14:59:58.711Z,17.10
2022-10-04T15:02:49.387Z,16.90
2022-10-04T15:06:04.577Z,16.80
2022-10-04T15:08:59.813Z,16.70
2022-10-04T15:11:42.879Z,16.80
2022-10-04T15:14:28.287Z,16.70
2022-10-04T15:16:57.646Z,16.70
2022-10-04T15:19:29.119Z,16.70
2022-10-04T15:22:04.775Z,16.70
2022-10-04T15:24:45.070Z,16.50
2022-10-04T15:27:45.059Z,16.50
2022-10-04T15:30:27.814Z,16.40
2022-10-04T15:33:13.288Z,16.30
2022-10-04T15:35:50.780Z,15.90
2022-10-04T15:38:22.830Z,15.80
2022-10-04T15:41:01.465Z,15.80
2022-10-04T15:43:34.267Z,15.70
2022-10-04T15:46:24.168Z,15.70
2022-10-04T15:49:12.800Z,15.50
2022-10-04T15:51:58.331Z,15.40
2022-10-04T15:54:58.632Z,15.20
2022-10-04T15:57:32.446Z,15.00
2022-10-04T16:00:10.986Z,14.90
2022-10-04T16:02:51.987Z,14.90
2022-10-04T16:05:25.757Z,14.80
2022-10-04T16:08:20.932Z,14.80
2022-10-04T16:11:04.655Z,14.70
2022-10-04T16:13:41.317Z,14.60
2022-10-04T16:16:40.736Z,14.60
2022-10-04T16:19:17.529Z,14.60
2022-10-04T16:21:52.201Z,14.50
2022-10-04T16:24:40.581Z,14.40
2022-10-04T16:27:42.985Z,14.40
2022-10-04T16:30:32.983Z,14.30
2022-10-04T16:33:09.883Z,14.30
2022-10-04T16:35:41.842Z,14.20
2022-10-04T16:38:22.023Z,14.10
2022-10-04T16:41:05.505Z,14.00
2022-10-04T16:43:34.078Z,13.90
2022-10-04T16:46:10.700Z,13.80
2022-10-04T16:48:49.133Z,13.70
2022-10-04T16:51:54.942Z,13.60
2022-10-04T16:54:58.418Z,13.50
2022-10-04T16:57:26.376Z,13.40
2022-10-04T16:59:54.830Z,13.40
2022-10-04T17:02:46.022Z,13.20
2022-10-04T17:05:55.073Z,13.20
2022-10-04T17:08:47.631Z,13.00
2022-10-04T17:11:41.259Z,13.20
2022-10-04T17:14:32.423Z,13.30
2022-10-04T17:17:03.725Z,13.40
2022-10-04T17:19:35.410Z,13.40
2022-10-04T17:22:15.941Z,13.30
2022-10-04T17:24:55.438Z,13.30
2022-10-04T17:27:33.671Z,13.30
2022-10-04T17:30:14.256Z,13.10
2022-10-04T17:32:58.893Z,13.10
2022-10-04T17:35:54.497Z,13.00
2022-10-04T17:38:27.879Z,12.90
2022-10-04T17:41:04.450Z,12.90
2022-10-04T17:43:41.220Z,12.90
2022-10-04T17:46:15.236Z,12.90
2022-10-04T17:48:46.423Z,12.90
2022-10-04T17:51:28.709Z,12.80
2022-10-04T17:54:03.726Z,12.80
2022-10-04T17:56:36.418Z,12.70
2022-10-04T17:59:09.890Z,12.70
2022-10-04T18:01:42.390Z,12.70
2022-10-04T18:04:16.549Z,12.70
2022-10-04T18:06:50.525Z,12.60
2022-10-04T18:09:24.816Z,12.50
2022-10-04T18:11:55.503Z,12.40
2022-10-04T18:14:45.932Z,12.40
2022-10-04T18:17:25.497Z,12.40
2022-10-04T18:20:07.143Z,12.30
2022-10-04T18:22:45.837Z,12.30
2022-10-04T18:25:16.334Z,12.30
2022-10-04T18:27:53.422Z,12.30
2022-10-04T18:30:21.446Z,12.40
2022-10-04T18:32:51.245Z,12.30
2022-10-04T18:35:24.508Z,12.30
2022-10-04T18:37:53.636Z,12.30
2022-10-04T18:40:23.283Z,12.40
2022-10-04T18:42:54.236Z,12.50
2022-10-04T18:45:24.930Z,12.50
2022-10-04T18:47:52.555Z,12.60
2022-10-04T18:50:28.650Z,12.60
2022-10-04T18:53:21.512Z,12.70
2022-10-04T18:55:57.614Z,12.70
2022-10-04T18:58:51.559Z,12.70
2022-10-04T19:01:38.644Z,12.70
2022-10-04T19:04:14.278Z,12.70
2022-10-04T19:06:46.814Z,12.70
2022-10-04T19:09:24.108Z,12.70
2022-10-04T19:11:55.995Z,12.70
2022-10-04T19:14:32.179Z,12.70
2022-10-04T19:17:00.613Z,12.70
2022-10-04T19:19:41.999Z,12.70
2022-10-04T19:22:19.569Z,12.70
2022-10-04T19:25:13.616Z,12.70
2022-10-04T19:27:43.175Z,12.70
2022-10-04T19:30:16.858Z,12.70
2022-10-04T19:32:56.462Z,12.70
2022-10-04T19:35:40.203Z,12.70
2022-10-04T19:38:24.501Z,12.60
2022-10-04T19:40:57.961Z,12.70
2022-10-04T19:43:33.998Z,12.60
2022-10-04T19:46:14.314Z,12.60
2022-10-04T19:48:46.828Z,12.60
2022-10-04T19:51:28.323Z,12.70
2022-10-04T19:54:02.722Z,12.70
2022-10-04T19:56:34.784Z,12.70
2022-10-04T19:59:05.526Z,12.70
2022-10-04T20:01:45.101Z,12.70
2022-10-04T20:04:14.974Z,12.70
2022-10-04T20:06:49.099Z,12.70
2022-10-04T20:09:24.887Z,12.70
2022-10-04T20:11:52.936Z,12.80
2022-10-04T20:15:09.906Z,12.70
2022-10-04T20:17:37.253Z,12.80
2022-10-04T20:20:05.420Z,12.80
2022-10-04T20:22:54.500Z,12.80
2022-10-04T20:25:59.248Z,12.80
2022-10-04T20:28:41.148Z,12.80
2022-10-04T20:31:10.101Z,12.80
2022-10-04T20:33:50.199Z,12.90
2022-10-04T20:36:50.684Z,12.90
2022-10-04T20:40:00.228Z,13.00
2022-10-04T20:42:33.359Z,13.00
2022-10-04T20:45:02.303Z,13.00
2022-10-04T20:47:54.292Z,13.00
2022-10-04T20:50:28.289Z,13.00
2022-10-04T20:52:59.871Z,13.00
2022-10-04T20:55:28.593Z,13.10
2022-10-04T20:57:58.710Z,13.10
2022-10-04T21:00:27.739Z,13.10
2022-10-04T21:03:15.300Z,13.10
2022-10-04T21:05:43.065Z,13.20
2022-10-04T21:08:25.373Z,13.20
2022-10-04T21:11:20.234Z,13.20
2022-10-04T21:13:59.410Z,13.20
2022-10-04T21:16:38.122Z,13.20
2022-10-04T21:19:42.002Z,13.20
2022-10-04T21:22:30.275Z,13.20
2022-10-04T21:24:59.390Z,13.20
2022-10-04T21:27:28.403Z,13.20
2022-10-04T21:29:55.185Z,13.20
2022-10-04T21:32:22.834Z,13.30
2022-10-04T21:34:54.442Z,13.20
2022-10-04T21:37:21.861Z,13.20
2022-10-04T21:39:48.586Z,13.20
2022-10-04T21:42:18.058Z,13.30
2022-10-04T21:44:44.628Z,13.30
2022-10-04T21:47:11.540Z,13.20
2022-10-04T21:49:39.144Z,13.30
2022-10-04T21:52:06.450Z,13.20
2022-10-04T21:54:33.389Z,13.30
2022-10-04T21:57:00.771Z,13.20
2022-10-04T21:59:28.823Z,13.20
2022-10-04T22:01:55.603Z,13.20
2022-10-04T22:04:23.083Z,13.20
2022-10-04T22:06:49.927Z,13.20
2022-10-04T22:09:16.822Z,13.20
2022-10-04T22:11:44.136Z,13.20
2022-10-04T22:14:10.950Z,13.10
2022-10-04T22:16:39.050Z,13.10
2022-10-04T22:19:06.419Z,13.10
2022-10-04T22:21:33.134Z,13.10
2022-10-04T22:23:59.940Z,13.00
2022-10-04T22:26:27.794Z,13.10
2022-10-04T22:28:55.773Z,13.00
2022-10-04T22:31:25.713Z,13.00
2022-10-04T22:33:55.382Z,13.00
2022-10-04T22:36:22.771Z,13.10
2022-10-04T22:38:53.025Z,13.00
2022-10-04T22:41:20.433Z,13.00
2022-10-04T22:43:48.861Z,13.00
2022-10-04T22:46:17.317Z,13.00
2022-10-04T22:48:46.700Z,13.00
2022-10-04T22:51:14.984Z,12.90
2022-10-04T22:53:43.670Z,12.90
2022-10-04T22:56:12.742Z,12.90
2022-10-04T22:58:39.503Z,12.90
2022-10-04T23:01:12.465Z,12.90
2022-10-04T23:03:39.843Z,12.90
2022-10-04T23:06:06.604Z,12.90
2022-10-04T23:08:34.667Z,12.90
2022-10-04T23:11:02.078Z,12.90
2022-10-04T23:13:28.786Z,12.90
2022-10-04T23:15:58.975Z,12.90
2022-10-04T23:18:26.985Z,12.80
2022-10-04T23:20:56.621Z,12.80
2022-10-04T23:23:23.334Z,12.90
2022-10-04T23:25:51.984Z,12.90
2022-10-04T23:28:19.392Z,12.80
2022-10-04T23:30:49.015Z,12.80
2022-10-04T23:33:19.503Z,12.70
2022-10-04T23:35:47.375Z,12.80
2022-10-04T23:38:16.256Z,12.80
2022-10-04T23:40:43.879Z,12.80
2022-10-04T23:43:17.827Z,12.80
2022-10-04T23:45:45.628Z,12.80
2022-10-04T23:48:20.776Z,12.80
2022-10-04T23:50:48.891Z,12.80
2022-10-04T23:53:22.445Z,12.80
2022-10-04T23:55:49.923Z,12.80
2022-10-04T23:58:20.723Z,12.80
